Time;durP1;ratioP1;P1;durP2;ratioP2;P2;SDS_P1;SDS_P2;PMS_P1;PMS_P2;Temp;Humidity;BMP_temperature;BMP_pressure;BME280_temperature;BME280_humidity;BME280_pressure;Samples;Min_cycle;Max_cycle;Signal;HPM_P1;HPM_P2
2023/08/11 00:01:07;;;;;;;4.47;1.60;;;;;;;;;;5061279;28;20777;-77
2023/08/11 00:03:36;;;;;;;3.93;1.60;;;;;;;;;;5059329;28;20670;-78
2023/08/11 00:06:06;;;;;;;4.10;2.07;;;;;;;;;;5058041;28;20603;-78
2023/08/11 00:08:36;;;;;;;5.37;1.77;;;;;;;;;;5059653;28;20548;-77
2023/08/11 00:11:03;;;;;;;4.17;2.13;;;;;;;;;;5060399;28;20450;-78
2023/08/11 00:13:31;;;;;;;4.17;2.23;;;;;;;;;;5062006;28;20864;-79
2023/08/11 00:15:58;;;;;;;4.00;2.17;;;;;;;;;;5062403;28;20540;-79
2023/08/11 00:18:26;;;;;;;3.60;1.80;;;;;;;;;;5063370;28;20540;-78
2023/08/11 00:20:54;;;;;;;5.63;1.60;;;;;;;;;;5066821;28;20454;-79
2023/08/11 00:23:22;;;;;;;3.33;1.70;;;;;;;;;;5066713;28;20457;-78
2023/08/11 00:25:49;;;;;;;7.53;1.90;;;;;;;;;;5065754;28;20485;-79
2023/08/11 00:28:17;;;;;;;3.67;1.97;;;;;;;;;;5064421;28;20453;-78
2023/08/11 00:30:44;;;;;;;5.40;2.10;;;;;;;;;;5064363;28;20541;-79
2023/08/11 00:33:11;;;;;;;7.40;2.07;;;;;;;;;;5062214;28;20901;-79
2023/08/11 00:35:39;;;;;;;3.60;1.77;;;;;;;;;;5066109;28;20445;-78
2023/08/11 00:38:08;;;;;;;4.40;1.73;;;;;;;;;;5064662;28;20476;-78
2023/08/11 00:40:36;;;;;;;7.20;1.97;;;;;;;;;;5067229;28;20437;-78
2023/08/11 00:43:03;;;;;;;3.73;1.80;;;;;;;;;;5062740;28;20461;-78
2023/08/11 00:45:31;;;;;;;4.63;1.80;;;;;;;;;;5062085;28;20516;-79
2023/08/11 00:47:59;;;;;;;5.53;2.77;;;;;;;;;;5063164;28;20456;-78
2023/08/11 00:50:26;;;;;;;9.10;1.57;;;;;;;;;;5065156;28;20500;-78
2023/08/11 00:52:54;;;;;;;5.10;1.90;;;;;;;;;;5065212;28;20540;-78
2023/08/11 00:55:23;;;;;;;3.70;1.90;;;;;;;;;;5064749;28;20445;-79
2023/08/11 00:57:51;;;;;;;4.33;1.60;;;;;;;;;;5066346;28;20453;-78
2023/08/11 01:00:18;;;;;;;3.97;2.23;;;;;;;;;;5065630;28;20912;-77
2023/08/11 01:02:46;;;;;;;4.57;2.07;;;;;;;;;;5066913;28;20461;-79
2023/08/11 01:05:15;;;;;;;3.30;1.50;;;;;;;;;;5065410;28;20519;-78
2023/08/11 01:07:45;;;;;;;3.23;1.70;;;;;;;;;;5062724;28;20591;-77
2023/08/11 01:10:18;;;;;;;3.73;1.70;;;;;;;;;;5064934;28;20477;-78
2023/08/11 01:12:51;;;;;;;3.53;1.80;;;;;;;;;;5068692;28;20464;-78
2023/08/11 01:15:21;;;;;;;4.63;1.67;;;;;;;;;;5067375;28;20560;-77
2023/08/11 01:17:50;;;;;;;3.43;1.20;;;;;;;;;;5067959;28;20883;-79
2023/08/11 01:20:18;;;;;;;3.60;2.00;;;;;;;;;;5068812;28;20444;-78
2023/08/11 01:22:47;;;;;;;4.13;1.60;;;;;;;;;;5068323;28;20449;-78
2023/08/11 01:25:16;;;;;;;4.83;1.97;;;;;;;;;;5066553;28;20490;-78
2023/08/11 01:27:45;;;;;;;7.33;1.90;;;;;;;;;;5066604;28;20453;-78
2023/08/11 01:30:16;;;;;;;2.60;1.50;;;;;;;;;;5065521;28;20457;-79
2023/08/11 01:32:45;;;;;;;5.57;1.93;;;;;;;;;;5060173;28;20692;-77
2023/08/11 01:35:12;;;;;;;4.13;1.97;;;;;;;;;;5064219;28;20456;-78
2023/08/11 01:37:40;;;;;;;2.60;1.50;;;;;;;;;;5065888;28;20453;-79
2023/08/11 01:40:10;;;;;;;3.80;1.77;;;;;;;;;;5065306;28;20536;-79
2023/08/11 01:42:39;;;;;;;3.80;1.83;;;;;;;;;;5062747;28;20460;-79
2023/08/11 01:45:07;;;;;;;3.10;1.50;;;;;;;;;;5063154;28;20489;-78
2023/08/11 01:47:34;;;;;;;9.40;1.63;;;;;;;;;;5061882;28;20579;-78
2023/08/11 01:50:08;;;;;;;3.70;1.73;;;;;;;;;;5063723;28;20515;-78
2023/08/11 01:52:36;;;;;;;5.40;1.73;;;;;;;;;;5063721;28;20445;-78
2023/08/11 01:55:04;;;;;;;6.27;2.57;;;;;;;;;;5067564;28;20849;-79
2023/08/11 01:57:31;;;;;;;7.47;1.70;;;;;;;;;;5064613;28;20453;-78
2023/08/11 02:00:00;;;;;;;4.03;1.77;;;;;;;;;;5068924;28;20533;-78
2023/08/11 02:02:27;;;;;;;2.83;2.03;;;;;;;;;;5070254;28;20471;-79
2023/08/11 02:04:55;;;;;;;4.47;1.93;;;;;;;;;;5067633;28;20463;-78
2023/08/11 02:07:22;;;;;;;2.70;1.77;;;;;;;;;;5069265;28;20461;-78
2023/08/11 02:09:50;;;;;;;5.13;2.10;;;;;;;;;;5068803;28;20464;-78
2023/08/11 02:12:17;;;;;;;2.67;1.10;;;;;;;;;;5070619;28;20461;-79
2023/08/11 02:14:45;;;;;;;5.63;1.53;;;;;;;;;;5065867;28;20457;-78
2023/08/11 02:17:14;;;;;;;7.10;2.97;;;;;;;;;;5067525;28;20543;-78
2023/08/11 02:19:41;;;;;;;6.50;2.63;;;;;;;;;;5068563;28;20453;-78
2023/08/11 02:22:09;;;;;;;5.37;1.67;;;;;;;;;;5067275;28;20454;-78
2023/08/11 02:24:36;;;;;;;3.90;1.80;;;;;;;;;;5068021;28;20485;-77
2023/08/11 02:27:04;;;;;;;3.57;1.50;;;;;;;;;;5065807;28;20481;-78
2023/08/11 02:29:32;;;;;;;2.93;1.30;;;;;;;;;;5067979;28;20461;-78
2023/08/11 02:32:03;;;;;;;6.40;1.90;;;;;;;;;;5067919;28;20880;-77
2023/08/11 02:34:32;;;;;;;4.67;1.77;;;;;;;;;;5068332;28;20450;-78
2023/08/11 02:37:01;;;;;;;3.10;1.83;;;;;;;;;;5068560;28;20460;-77
2023/08/11 02:39:29;;;;;;;2.60;1.40;;;;;;;;;;5068854;28;20524;-79
2023/08/11 02:41:56;;;;;;;5.43;1.87;;;;;;;;;;5066610;28;20434;-79
2023/08/11 02:44:23;;;;;;;4.87;1.67;;;;;;;;;;5065415;28;20473;-79
2023/08/11 02:46:51;;;;;;;3.27;1.90;;;;;;;;;;5068485;28;20539;-79
2023/08/11 02:49:18;;;;;;;3.77;2.13;;;;;;;;;;5069062;28;20807;-79
2023/08/11 02:51:47;;;;;;;4.07;2.53;;;;;;;;;;5068333;28;20496;-79
2023/08/11 02:54:16;;;;;;;2.53;1.20;;;;;;;;;;5066330;28;20454;-79
2023/08/11 02:56:48;;;;;;;4.50;1.80;;;;;;;;;;5068194;28;20459;-79
2023/08/11 02:59:16;;;;;;;4.20;1.83;;;;;;;;;;5064487;28;20491;-78
2023/08/11 03:01:48;;;;;;;6.97;1.73;;;;;;;;;;5065080;28;20498;-79
2023/08/11 03:04:16;;;;;;;4.67;1.97;;;;;;;;;;5062983;28;20457;-79
2023/08/11 03:06:45;;;;;;;7.37;1.60;;;;;;;;;;5065934;28;20501;-78
2023/08/11 03:09:14;;;;;;;3.43;1.47;;;;;;;;;;5067879;28;20495;-79
2023/08/11 03:11:41;;;;;;;3.00;1.50;;;;;;;;;;5067251;28;20504;-79
2023/08/11 03:14:08;;;;;;;3.00;1.47;;;;;;;;;;5066576;28;20453;-78
2023/08/11 03:16:36;;;;;;;4.27;1.80;;;;;;;;;;5066306;28;20454;-78
2023/08/11 03:19:03;;;;;;;5.20;1.67;;;;;;;;;;5069475;28;20453;-78
2023/08/11 03:21:30;;;;;;;9.97;2.10;;;;;;;;;;5067754;28;20461;-79
2023/08/11 03:23:58;;;;;;;5.43;1.53;;;;;;;;;;5067229;28;20441;-77
2023/08/11 03:26:27;;;;;;;3.50;2.07;;;;;;;;;;5063188;28;20846;-79
2023/08/11 03:28:54;;;;;;;5.83;2.07;;;;;;;;;;5064530;28;20464;-79
2023/08/11 03:31:22;;;;;;;4.73;1.93;;;;;;;;;;5065338;28;20488;-78
2023/08/11 03:33:50;;;;;;;4.30;2.03;;;;;;;;;;5064238;28;20454;-79
2023/08/11 03:36:23;;;;;;;3.37;1.30;;;;;;;;;;5063536;28;20453;-79
2023/08/11 03:38:51;;;;;;;2.83;1.60;;;;;;;;;;5064627;28;20515;-78
2023/08/11 03:41:18;;;;;;;6.50;2.20;;;;;;;;;;5064878;28;20881;-79
2023/08/11 03:43:47;;;;;;;4.73;2.30;;;;;;;;;;5062547;28;20511;-78
2023/08/11 03:46:15;;;;;;;2.80;1.73;;;;;;;;;;5065407;28;20554;-79
2023/08/11 03:48:43;;;;;;;3.43;1.87;;;;;;;;;;5067447;28;20474;-79
2023/08/11 03:51:11;;;;;;;2.63;1.53;;;;;;;;;;5065479;28;20468;-79
2023/08/11 03:53:38;;;;;;;4.53;2.10;;;;;;;;;;5063597;28;20445;-78
2023/08/11 03:56:07;;;;;;;6.07;2.10;;;;;;;;;;5061293;28;20477;-79
2023/08/11 03:58:35;;;;;;;3.33;1.70;;;;;;;;;;5062419;28;20524;-78
2023/08/11 04:01:04;;;;;;;10.57;2.40;;;;;;;;;;5062523;28;20489;-79
2023/08/11 04:03:37;;;;;;;4.43;1.87;;;;;;;;;;5065561;28;20453;-79
2023/08/11 04:06:05;;;;;;;2.77;1.80;;;;;;;;;;5065502;28;20485;-79
2023/08/11 04:08:32;;;;;;;5.30;1.93;;;;;;;;;;5067342;28;20446;-79
2023/08/11 04:11:00;;;;;;;4.90;2.53;;;;;;;;;;5070031;28;20496;-78
2023/08/11 04:13:27;;;;;;;5.83;1.97;;;;;;;;;;5065649;28;20464;-78
2023/08/11 04:15:55;;;;;;;3.70;1.83;;;;;;;;;;5067454;28;20464;-78
2023/08/11 04:18:24;;;;;;;5.97;2.10;;;;;;;;;;5069103;28;20457;-79
2023/08/11 04:20:52;;;;;;;3.00;1.83;;;;;;;;;;5066255;28;20445;-78
2023/08/11 04:23:19;;;;;;;6.43;1.90;;;;;;;;;;5066215;28;20446;-79
2023/08/11 04:25:46;;;;;;;7.90;2.20;;;;;;;;;;5063874;28;20457;-79
2023/08/11 04:28:14;;;;;;;3.40;1.60;;;;;;;;;;5067040;28;20460;-78
2023/08/11 04:30:41;;;;;;;4.07;2.20;;;;;;;;;;5065766;28;20879;-80
2023/08/11 04:33:09;;;;;;;3.60;2.87;;;;;;;;;;5065146;28;20460;-78
2023/08/11 04:35:38;;;;;;;3.90;1.80;;;;;;;;;;5064418;28;20471;-78
2023/08/11 04:38:07;;;;;;;4.00;1.87;;;;;;;;;;5061404;28;20453;-78
2023/08/11 04:40:34;;;;;;;4.07;2.07;;;;;;;;;;5065179;28;20495;-78
2023/08/11 04:43:02;;;;;;;3.77;1.40;;;;;;;;;;5069407;28;20520;-78
2023/08/11 04:45:29;;;;;;;7.73;2.53;;;;;;;;;;5063830;28;20717;-78
2023/08/11 04:47:57;;;;;;;3.77;1.93;;;;;;;;;;5059438;28;20564;-79
2023/08/11 04:50:24;;;;;;;4.30;1.80;;;;;;;;;;5062708;28;20452;-79
2023/08/11 04:52:53;;;;;;;4.97;1.77;;;;;;;;;;5062933;28;20524;-78
2023/08/11 04:55:20;;;;;;;2.47;1.57;;;;;;;;;;5063867;28;20465;-78
2023/08/11 04:57:48;;;;;;;3.80;2.37;;;;;;;;;;5060410;28;20449;-78
2023/08/11 05:00:18;;;;;;;3.50;2.17;;;;;;;;;;5058726;28;20484;-78
2023/08/11 05:02:46;;;;;;;3.77;2.10;;;;;;;;;;5063829;28;20453;-78
2023/08/11 05:05:13;;;;;;;4.60;1.93;;;;;;;;;;5063749;28;20487;-78
2023/08/11 05:07:41;;;;;;;8.47;1.63;;;;;;;;;;5063543;28;20556;-78
2023/08/11 05:10:11;;;;;;;2.87;1.53;;;;;;;;;;5062277;28;20607;-79
2023/08/11 05:12:38;;;;;;;3.70;2.23;;;;;;;;;;5059784;28;20459;-77
2023/08/11 05:15:07;;;;;;;5.40;1.70;;;;;;;;;;5055189;28;20452;-78
2023/08/11 05:17:37;;;;;;;4.80;1.87;;;;;;;;;;5056503;28;20492;-77
2023/08/11 05:20:11;;;;;;;4.90;1.80;;;;;;;;;;5057544;28;20472;-79
2023/08/11 05:22:43;;;;;;;4.83;2.30;;;;;;;;;;5059786;28;20449;-79
2023/08/11 05:25:12;;;;;;;7.00;2.70;;;;;;;;;;5056567;28;20449;-77
2023/08/11 05:27:40;;;;;;;5.80;2.30;;;;;;;;;;5066508;28;20500;-78
2023/08/11 05:30:10;;;;;;;8.93;2.07;;;;;;;;;;5065405;28;20476;-78
2023/08/11 05:32:38;;;;;;;2.70;1.70;;;;;;;;;;5069622;28;20684;-77
2023/08/11 05:35:08;;;;;;;3.20;1.93;;;;;;;;;;5064613;28;20548;-77
2023/08/11 05:37:37;;;;;;;7.30;2.53;;;;;;;;;;5067634;28;20484;-79
2023/08/11 05:40:16;;;;;;;3.60;2.30;;;;;;;;;;5061762;28;20467;-77
2023/08/11 05:42:43;;;;;;;3.53;2.33;;;;;;;;;;5061634;28;20437;-79
2023/08/11 05:45:17;;;;;;;5.17;2.73;;;;;;;;;;5061585;28;20452;-79
2023/08/11 05:47:44;;;;;;;4.07;2.07;;;;;;;;;;5065001;28;20849;-79
2023/08/11 05:50:19;;;;;;;6.83;2.10;;;;;;;;;;5062157;28;20453;-78
2023/08/11 05:52:46;;;;;;;4.30;1.90;;;;;;;;;;5065215;28;20467;-78
2023/08/11 05:55:15;;;;;;;3.40;2.23;;;;;;;;;;5062163;28;20880;-80
2023/08/11 05:57:42;;;;;;;5.13;2.10;;;;;;;;;;5060636;28;20456;-78
2023/08/11 06:00:10;;;;;;;4.43;2.53;;;;;;;;;;5065840;28;20472;-78
2023/08/11 06:02:38;;;;;;;5.47;2.10;;;;;;;;;;5057268;28;20507;-78
2023/08/11 06:05:05;;;;;;;3.70;1.83;;;;;;;;;;5062291;28;20895;-78
2023/08/11 06:07:33;;;;;;;9.87;4.40;;;;;;;;;;5056471;28;20540;-79
2023/08/11 06:10:00;;;;;;;5.23;1.97;;;;;;;;;;5060645;28;20445;-78
2023/08/11 06:12:29;;;;;;;5.20;2.90;;;;;;;;;;5061465;28;20509;-78
2023/08/11 06:14:56;;;;;;;6.30;2.60;;;;;;;;;;5057406;28;20470;-78
2023/08/11 06:17:24;;;;;;;8.77;2.57;;;;;;;;;;5059459;28;20433;-78
2023/08/11 06:19:51;;;;;;;6.53;2.50;;;;;;;;;;5057716;28;20461;-78
2023/08/11 06:22:19;;;;;;;4.67;2.47;;;;;;;;;;5060674;28;20751;-75
2023/08/11 06:24:46;;;;;;;4.70;2.20;;;;;;;;;;5064387;28;20434;-78
2023/08/11 06:27:14;;;;;;;5.33;2.10;;;;;;;;;;5063444;28;20496;-78
2023/08/11 06:29:43;;;;;;;3.17;2.10;;;;;;;;;;5063512;28;20440;-77
2023/08/11 06:32:10;;;;;;;3.53;2.50;;;;;;;;;;5063409;28;20507;-79
2023/08/11 06:34:40;;;;;;;6.00;2.60;;;;;;;;;;5064348;28;20524;-77
2023/08/11 06:37:08;;;;;;;8.17;2.30;;;;;;;;;;5061191;28;20476;-78
2023/08/11 06:39:36;;;;;;;6.70;2.80;;;;;;;;;;5061323;28;20449;-77
2023/08/11 06:42:04;;;;;;;6.70;3.10;;;;;;;;;;5062715;28;20744;-78
2023/08/11 06:44:31;;;;;;;4.93;2.37;;;;;;;;;;5062024;28;20731;-77
2023/08/11 06:47:00;;;;;;;8.03;2.80;;;;;;;;;;5061270;28;20549;-77
2023/08/11 06:49:28;;;;;;;7.03;3.00;;;;;;;;;;5058018;28;20512;-78
2023/08/11 06:51:56;;;;;;;4.30;3.80;;;;;;;;;;5061543;28;20492;-77
2023/08/11 06:54:25;;;;;;;4.73;2.00;;;;;;;;;;5060160;28;20441;-77
2023/08/11 06:56:53;;;;;;;3.80;2.37;;;;;;;;;;5060460;28;20449;-76
2023/08/11 06:59:22;;;;;;;4.83;3.10;;;;;;;;;;5057310;28;20446;-79
2023/08/11 07:01:50;;;;;;;7.77;2.33;;;;;;;;;;5058130;28;20724;-77
2023/08/11 07:04:19;;;;;;;4.27;2.53;;;;;;;;;;5057095;28;20481;-77
2023/08/11 07:06:47;;;;;;;5.93;2.30;;;;;;;;;;5056402;28;20789;-77
2023/08/11 07:11:55;;;;;;;6.30;2.30;;;;;;;;;;5059647;28;20492;-78
2023/08/11 07:14:23;;;;;;;4.57;2.37;;;;;;;;;;5056101;28;20449;-77
2023/08/11 07:16:53;;;;;;;4.20;2.23;;;;;;;;;;5058466;28;20441;-77
2023/08/11 07:19:21;;;;;;;7.20;2.10;;;;;;;;;;5059195;28;20548;-78
2023/08/11 07:21:49;;;;;;;3.00;2.23;;;;;;;;;;5058778;28;20457;-77
2023/08/11 07:24:21;;;;;;;4.73;2.80;;;;;;;;;;5058872;28;20482;-78
2023/08/11 07:26:49;;;;;;;6.80;2.70;;;;;;;;;;5062004;28;20489;-78
2023/08/11 07:29:16;;;;;;;6.87;2.33;;;;;;;;;;5055333;28;20480;-77
2023/08/11 07:31:45;;;;;;;4.63;2.17;;;;;;;;;;5057424;28;20670;-77
2023/08/11 07:34:13;;;;;;;4.20;2.13;;;;;;;;;;5058272;28;20492;-78
2023/08/11 07:36:43;;;;;;;5.13;2.30;;;;;;;;;;5057683;28;20491;-78
2023/08/11 07:39:12;;;;;;;4.90;2.53;;;;;;;;;;5057402;28;20449;-78
2023/08/11 07:41:39;;;;;;;6.43;2.30;;;;;;;;;;5057560;28;20544;-78
2023/08/11 07:44:10;;;;;;;5.50;2.67;;;;;;;;;;5058407;28;20484;-78
2023/08/11 07:46:41;;;;;;;4.03;2.37;;;;;;;;;;5078018;28;20913;-78
2023/08/11 07:49:09;;;;;;;7.17;2.40;;;;;;;;;;5077243;28;20508;-77
2023/08/11 07:51:37;;;;;;;5.03;2.07;;;;;;;;;;5061170;28;20527;-77
2023/08/11 07:54:07;;;;;;;4.67;2.50;;;;;;;;;;5073523;28;20480;-78
2023/08/11 07:56:34;;;;;;;4.60;2.80;;;;;;;;;;5081437;28;20471;-79
2023/08/11 07:59:05;;;;;;;6.17;3.70;;;;;;;;;;5083071;28;20451;-79
2023/08/11 08:01:33;;;;;;;10.70;5.53;;;;;;;;;;5081354;28;21109;-78
2023/08/11 08:04:01;;;;;;;5.67;3.30;;;;;;;;;;5062489;28;20636;-78
2023/08/11 08:06:28;;;;;;;10.40;4.40;;;;;;;;;;5064703;28;20464;-78
2023/08/11 08:08:56;;;;;;;4.50;3.33;;;;;;;;;;5061502;28;20489;-78
2023/08/11 08:11:26;;;;;;;5.30;2.77;;;;;;;;;;5060211;28;20469;-78
2023/08/11 08:13:54;;;;;;;5.23;2.73;;;;;;;;;;5060082;28;20507;-77
2023/08/11 08:16:21;;;;;;;4.07;3.10;;;;;;;;;;5060024;28;20489;-77
2023/08/11 08:18:49;;;;;;;5.47;4.17;;;;;;;;;;5060887;28;20485;-78
2023/08/11 08:21:17;;;;;;;4.30;2.90;;;;;;;;;;5070672;28;20437;-77
2023/08/11 08:23:45;;;;;;;5.10;2.40;;;;;;;;;;5080318;28;20463;-78
2023/08/11 08:26:13;;;;;;;4.97;2.30;;;;;;;;;;5075461;28;21086;-78
2023/08/11 08:28:59;;;;;;;4.20;2.20;;;;;;;;;;5071727;28;20495;-76
2023/08/11 08:31:29;;;;;;;4.47;2.60;;;;;;;;;;5076477;28;20520;-77
2023/08/11 08:33:59;;;;;;;5.20;2.13;;;;;;;;;;5080514;28;20461;-78
2023/08/11 08:36:31;;;;;;;7.17;2.90;;;;;;;;;;5079560;28;20526;-77
2023/08/11 08:38:58;;;;;;;6.37;2.47;;;;;;;;;;5076952;28;20445;-79
2023/08/11 08:41:29;;;;;;;5.03;2.60;;;;;;;;;;5080034;28;20445;-78
2023/08/11 08:43:57;;;;;;;6.03;2.50;;;;;;;;;;5077104;28;20452;-77
2023/08/11 08:46:28;;;;;;;5.30;3.20;;;;;;;;;;5077336;28;20468;-79
2023/08/11 08:49:04;;;;;;;8.00;3.37;;;;;;;;;;5075253;28;20508;-77
2023/08/11 08:51:33;;;;;;;6.17;3.60;;;;;;;;;;5063286;28;21047;-79
2023/08/11 08:54:01;;;;;;;8.20;2.17;;;;;;;;;;5055426;28;20488;-78
2023/08/11 08:56:29;;;;;;;4.90;3.20;;;;;;;;;;5059906;28;20527;-78
2023/08/11 08:58:56;;;;;;;6.43;2.10;;;;;;;;;;5055781;28;20465;-78
2023/08/11 09:01:24;;;;;;;3.33;2.20;;;;;;;;;;5068726;28;20476;-78
2023/08/11 09:03:52;;;;;;;6.40;2.90;;;;;;;;;;5073831;28;20483;-78
2023/08/11 09:06:22;;;;;;;4.37;2.23;;;;;;;;;;5072614;28;20459;-78
2023/08/11 09:08:49;;;;;;;4.83;2.43;;;;;;;;;;5074104;28;20575;-79
2023/08/11 09:11:17;;;;;;;4.57;2.43;;;;;;;;;;5077032;28;20460;-78
2023/08/11 09:13:45;;;;;;;15.83;9.60;;;;;;;;;;5072633;28;20440;-78
2023/08/11 09:16:13;;;;;;;7.93;5.07;;;;;;;;;;5074020;28;20456;-78
2023/08/11 09:18:41;;;;;;;4.53;2.40;;;;;;;;;;5073624;28;20449;-77
2023/08/11 09:21:10;;;;;;;4.20;2.43;;;;;;;;;;5081286;28;20453;-78
2023/08/11 09:23:39;;;;;;;6.00;2.10;;;;;;;;;;5080263;28;20758;-78
2023/08/11 09:26:07;;;;;;;4.10;2.13;;;;;;;;;;5085102;28;20447;-77
2023/08/11 09:28:35;;;;;;;3.30;1.70;;;;;;;;;;5080117;28;20476;-77
2023/08/11 09:31:03;;;;;;;11.20;2.90;;;;;;;;;;5080800;28;20467;-77
2023/08/11 09:33:32;;;;;;;3.63;2.20;;;;;;;;;;5075483;28;20456;-77
2023/08/11 09:36:00;;;;;;;6.13;2.80;;;;;;;;;;5074277;28;20453;-77
2023/08/11 09:38:27;;;;;;;3.00;2.00;;;;;;;;;;5091860;28;20554;-79
2023/08/11 09:41:00;;;;;;;4.10;2.60;;;;;;;;;;5095044;28;20459;-78
2023/08/11 09:43:32;;;;;;;5.03;2.37;;;;;;;;;;5080709;28;20936;-79
2023/08/11 09:46:00;;;;;;;5.77;1.80;;;;;;;;;;5086704;28;21110;-77
2023/08/11 09:48:31;;;;;;;4.60;2.20;;;;;;;;;;5091581;28;20476;-79
2023/08/11 09:50:59;;;;;;;3.87;2.27;;;;;;;;;;5079378;28;21070;-79
2023/08/11 09:53:27;;;;;;;2.83;1.90;;;;;;;;;;5082845;28;20506;-78
2023/08/11 09:55:56;;;;;;;2.77;1.80;;;;;;;;;;5081334;28;20470;-80
2023/08/11 09:58:29;;;;;;;4.20;1.90;;;;;;;;;;5083628;28;20453;-78
2023/08/11 10:00:57;;;;;;;6.03;2.63;;;;;;;;;;5094305;28;20475;-79
2023/08/11 10:03:28;;;;;;;6.30;2.20;;;;;;;;;;5082534;28;20489;-79
2023/08/11 10:06:03;;;;;;;7.00;4.50;;;;;;;;;;5096266;28;20868;-78
2023/08/11 10:17:07;;;;;;;6.20;2.10;;;;;;;;;;5070135;28;20485;-78
2023/08/11 10:19:44;;;;;;;3.50;2.40;;;;;;;;;;5065595;28;20218;-79
2023/08/11 11:14:13;;;;;;;2.07;1.17;;;;;;;;;;5098304;22;20472;-78
2023/08/11 11:17:15;;;;;;;2.80;1.37;;;;;;;;;;5076801;28;20525;-75
2023/08/11 11:19:45;;;;;;;2.40;1.40;;;;;;;;;;5080252;28;20716;-78
2023/08/11 11:22:18;;;;;;;2.77;1.00;;;;;;;;;;5080936;28;20523;-78
2023/08/11 11:24:58;;;;;;;3.80;2.10;;;;;;;;;;5081830;28;20559;-78
2023/08/11 11:27:39;;;;;;;3.70;2.60;;;;;;;;;;5081599;28;20463;-79
2023/08/11 11:30:28;;;;;;;4.27;1.60;;;;;;;;;;5079883;28;20524;-77
2023/08/11 11:59:20;;;;;;;5.33;3.17;;;;;;;;;;5078346;28;20424;-79
2023/08/11 12:04:33;;;;;;;2.60;1.77;;;;;;;;;;5066099;28;20471;-78
2023/08/11 12:07:02;;;;;;;6.40;4.00;;;;;;;;;;5069514;28;20516;-79
2023/08/11 12:09:55;;;;;;;3.50;1.70;;;;;;;;;;5080960;28;20476;-80
2023/08/11 12:12:31;;;;;;;2.57;1.50;;;;;;;;;;5011211;28;20458;-79
2023/08/11 12:15:22;;;;;;;2.67;1.67;;;;;;;;;;5082646;28;20456;-78
2023/08/11 12:17:55;;;;;;;2.47;1.13;;;;;;;;;;5078138;28;20469;-78
2023/08/11 12:20:25;;;;;;;3.20;2.47;;;;;;;;;;5061678;28;20690;-79
2023/08/11 12:23:03;;;;;;;6.73;2.07;;;;;;;;;;5072864;28;20465;-79
2023/08/11 12:25:46;;;;;;;3.37;2.10;;;;;;;;;;5082331;28;20452;-79
2023/08/11 12:28:17;;;;;;;5.33;2.67;;;;;;;;;;5077343;28;20484;-78
2023/08/11 12:30:50;;;;;;;4.70;1.77;;;;;;;;;;5083252;28;20456;-79
2023/08/11 12:33:34;;;;;;;4.07;2.47;;;;;;;;;;5062878;28;20461;-79
2023/08/11 12:36:10;;;;;;;4.80;2.30;;;;;;;;;;5058759;28;20779;-79
2023/08/11 12:38:57;;;;;;;4.67;1.30;;;;;;;;;;5058876;28;20544;-79
2023/08/11 12:41:42;;;;;;;2.67;1.50;;;;;;;;;;5059859;28;20476;-79
2023/08/11 12:44:43;;;;;;;3.47;1.90;;;;;;;;;;5058388;28;20855;-78
2023/08/11 12:47:27;;;;;;;2.80;1.70;;;;;;;;;;5071462;28;20476;-78
2023/08/11 15:39:43;;;;;;;;;;;;;;;;;;;;;
2023/08/11 16:01:15;;;;;;;9.73;4.37;;;;;;;;;;5029303;28;21097;-77
2023/08/11 16:03:58;;;;;;;3.77;2.60;;;;;;;;;;5019752;28;20475;-77
2023/08/11 16:12:24;;;;;;;2.77;1.17;;;;;;;;;;5029738;28;20444;-76
2023/08/11 16:15:10;;;;;;;2.40;1.20;;;;;;;;;;5098006;28;21080;-78
2023/08/11 16:17:51;;;;;;;3.00;1.27;;;;;;;;;;5087887;28;20583;-77
2023/08/11 16:20:33;;;;;;;5.60;3.07;;;;;;;;;;5073590;28;20556;-77
2023/08/11 16:23:09;;;;;;;6.43;3.97;;;;;;;;;;5065929;28;20513;-77
2023/08/11 16:25:43;;;;;;;4.23;1.43;;;;;;;;;;5056265;28;20820;-77
2023/08/11 16:28:15;;;;;;;2.17;1.20;;;;;;;;;;5053276;28;20777;-76
2023/08/11 16:30:52;;;;;;;5.27;2.47;;;;;;;;;;5066630;28;20452;-76
2023/08/11 16:33:31;;;;;;;2.90;1.43;;;;;;;;;;5087799;28;20487;-76
2023/08/11 16:36:13;;;;;;;5.20;2.80;;;;;;;;;;5099321;28;20505;-77
2023/08/11 16:39:16;;;;;;;3.37;1.93;;;;;;;;;;5097934;28;20456;-77
2023/08/11 16:49:41;;;;;;;5.53;3.90;;;;;;;;;;4855283;22;20478;-77
2023/08/11 17:01:47;;;;;;;5.50;3.60;;;;;;;;;;5041582;28;20671;-77
2023/08/11 17:04:51;;;;;;;8.70;4.07;;;;;;;;;;5035103;28;20518;-79
2023/08/11 17:07:43;;;;;;;6.73;3.67;;;;;;;;;;5023990;28;20624;-79
2023/08/11 17:10:38;;;;;;;9.40;4.70;;;;;;;;;;5020185;28;20482;-77
2023/08/11 17:13:10;;;;;;;6.43;2.67;;;;;;;;;;5031485;28;20466;-78
2023/08/11 17:16:04;;;;;;;9.00;5.30;;;;;;;;;;5015770;28;20600;-79
2023/08/11 17:18:35;;;;;;;6.10;3.60;;;;;;;;;;5052235;28;20452;-79
2023/08/11 17:21:07;;;;;;;3.43;2.17;;;;;;;;;;5069327;28;20477;-78
2023/08/11 17:23:45;;;;;;;4.00;2.70;;;;;;;;;;5067433;28;20888;-78
2023/08/11 17:29:44;;;;;;;6.87;4.47;;;;;;;;;;5080752;28;20492;-79
2023/08/11 17:35:26;;;;;;;11.00;7.10;;;;;;;;;;5066179;28;20452;-78
2023/08/11 17:46:10;;;;;;;7.80;4.83;;;;;;;;;;4225233;22;20484;-77
2023/08/11 18:50:27;;;;;;;9.07;5.83;;;;;;;;;;4586460;26;20478;-78
2023/08/11 19:43:47;;;;;;;8.93;4.90;;;;;;;;;;1477489;26;20498;-78
2023/08/11 19:46:18;;;;;;;16.83;12.13;;;;;;;;;;5093831;28;21161;-79
2023/08/11 19:49:03;;;;;;;18.43;11.37;;;;;;;;;;5117948;28;20454;-78
2023/08/11 19:51:40;;;;;;;11.17;7.90;;;;;;;;;;5118780;28;20545;-78
2023/08/11 19:54:12;;;;;;;10.73;5.43;;;;;;;;;;5121460;28;20454;-77
2023/08/11 19:56:42;;;;;;;10.17;6.13;;;;;;;;;;5098745;28;21103;-78
2023/08/11 19:59:31;;;;;;;8.00;5.60;;;;;;;;;;5080735;28;20456;-78
2023/08/11 20:01:59;;;;;;;7.80;5.33;;;;;;;;;;5080091;28;20468;-79
2023/08/11 20:04:28;;;;;;;8.67;4.40;;;;;;;;;;5094077;28;20526;-80
2023/08/11 20:06:57;;;;;;;6.27;3.60;;;;;;;;;;5092401;28;20532;-79
2023/08/11 20:09:33;;;;;;;9.77;4.30;;;;;;;;;;5080636;28;20561;-79
2023/08/11 20:12:01;;;;;;;9.10;4.63;;;;;;;;;;5096997;28;20854;-77
2023/08/11 20:17:30;;;;;;;10.90;7.40;;;;;;;;;;5095628;28;20454;-77
2023/08/11 20:22:42;;;;;;;12.83;6.23;;;;;;;;;;5098091;28;20444;-79
2023/08/11 20:25:10;;;;;;;9.30;4.00;;;;;;;;;;5098293;28;20470;-78
2023/08/11 20:27:39;;;;;;;7.03;3.90;;;;;;;;;;5091636;28;20598;-79
2023/08/11 20:30:18;;;;;;;8.40;4.80;;;;;;;;;;5086565;28;20492;-79
2023/08/11 20:35:52;;;;;;;10.30;6.10;;;;;;;;;;5098077;28;20480;-78
2023/08/11 20:38:23;;;;;;;6.40;3.70;;;;;;;;;;5081257;28;20453;-78
2023/08/11 21:28:07;;;;;;;5.77;2.70;;;;;;;;;;5079211;28;20465;-78
2023/08/11 21:30:36;;;;;;;4.80;2.33;;;;;;;;;;5080156;28;20487;-77
2023/08/11 21:33:13;;;;;;;3.17;2.47;;;;;;;;;;5076939;28;20545;-78
2023/08/11 21:35:46;;;;;;;5.93;3.70;;;;;;;;;;5078583;28;20488;-77
2023/08/11 21:38:15;;;;;;;6.23;4.53;;;;;;;;;;5081005;28;20452;-77
2023/08/11 21:40:44;;;;;;;6.07;3.00;;;;;;;;;;5078962;28;20461;-77
2023/08/11 21:43:14;;;;;;;4.83;2.40;;;;;;;;;;5076438;28;20749;-77
2023/08/11 21:45:42;;;;;;;8.30;2.30;;;;;;;;;;5075828;28;20598;-79
2023/08/11 21:48:10;;;;;;;4.50;2.60;;;;;;;;;;5078782;28;20462;-77
2023/08/11 21:50:38;;;;;;;9.50;4.53;;;;;;;;;;5078450;28;20484;-78
2023/08/11 21:53:07;;;;;;;5.43;2.70;;;;;;;;;;5075391;28;20456;-77
2023/08/11 21:55:36;;;;;;;5.63;2.30;;;;;;;;;;5073577;28;20981;-78
2023/08/11 21:58:04;;;;;;;8.67;4.83;;;;;;;;;;5075130;28;20449;-79
2023/08/11 22:00:35;;;;;;;7.37;4.87;;;;;;;;;;5077181;28;20775;-78
2023/08/11 22:03:06;;;;;;;5.63;2.67;;;;;;;;;;5079204;28;20468;-78
2023/08/11 22:05:35;;;;;;;4.90;2.77;;;;;;;;;;5078172;28;20804;-77
2023/08/11 22:08:03;;;;;;;6.13;3.10;;;;;;;;;;5079649;28;20524;-79
2023/08/11 22:10:32;;;;;;;4.10;2.70;;;;;;;;;;5084140;28;20931;-79
2023/08/11 22:13:00;;;;;;;4.70;2.80;;;;;;;;;;5083919;28;20448;-80
2023/08/11 22:15:28;;;;;;;5.03;2.97;;;;;;;;;;5084345;28;20641;-78
2023/08/11 22:17:57;;;;;;;4.93;2.40;;;;;;;;;;5086428;28;20470;-79
2023/08/11 22:20:26;;;;;;;4.47;2.37;;;;;;;;;;5087483;28;20504;-78
2023/08/11 22:22:55;;;;;;;4.50;2.97;;;;;;;;;;5085857;28;20869;-78
2023/08/11 22:25:23;;;;;;;8.03;3.13;;;;;;;;;;5085266;28;20954;-78
2023/08/11 22:27:52;;;;;;;8.43;2.33;;;;;;;;;;5084267;28;20765;-78
2023/08/11 22:30:20;;;;;;;4.83;2.23;;;;;;;;;;5084055;28;20484;-80
2023/08/11 22:32:48;;;;;;;4.77;3.40;;;;;;;;;;5085273;28;20559;-78
2023/08/11 22:35:17;;;;;;;4.30;2.10;;;;;;;;;;5085665;28;20471;-79
2023/08/11 22:37:45;;;;;;;3.63;2.20;;;;;;;;;;5084150;28;20490;-78
2023/08/11 22:40:16;;;;;;;5.70;3.03;;;;;;;;;;5084534;28;20451;-79
2023/08/11 22:42:45;;;;;;;3.10;2.27;;;;;;;;;;5086899;28;20468;-78
2023/08/11 22:45:22;;;;;;;4.53;2.17;;;;;;;;;;5085304;28;20724;-78
2023/08/11 22:47:51;;;;;;;3.93;2.23;;;;;;;;;;5083082;28;20672;-77
2023/08/11 22:50:35;;;;;;;4.43;2.70;;;;;;;;;;5081197;28;20481;-78
2023/08/11 22:53:05;;;;;;;5.03;2.77;;;;;;;;;;5080301;28;20493;-78
2023/08/11 22:55:33;;;;;;;4.97;2.43;;;;;;;;;;5081987;28;20515;-77
2023/08/11 22:58:01;;;;;;;4.20;2.87;;;;;;;;;;5079567;28;20445;-78
2023/08/11 23:00:29;;;;;;;5.30;2.43;;;;;;;;;;5082127;28;20515;-79
2023/08/11 23:02:57;;;;;;;5.80;2.10;;;;;;;;;;5082790;28;20479;-78
2023/08/11 23:05:25;;;;;;;5.77;2.40;;;;;;;;;;5084090;28;20456;-78
2023/08/11 23:07:55;;;;;;;3.00;2.10;;;;;;;;;;5083971;28;20452;-79
2023/08/11 23:10:23;;;;;;;5.20;2.90;;;;;;;;;;5083359;28;20480;-76